createdAt,value
2019-02-11T00:00:07.696Z,4.70
2019-02-11T00:02:38.484Z,4.80
2019-02-11T00:05:27.673Z,4.70
2019-02-11T00:08:17.166Z,4.80
2019-02-11T00:11:06.496Z,4.80
2019-02-11T00:13:56.788Z,4.80
2019-02-11T00:16:47.028Z,4.80
2019-02-11T00:19:36.358Z,4.80
2019-02-11T00:22:25.741Z,4.80
2019-02-11T00:25:14.226Z,4.80
2019-02-11T00:28:03.435Z,4.90
2019-02-11T00:30:52.717Z,4.90
2019-02-11T00:33:42.710Z,4.80
2019-02-11T00:36:31.401Z,4.80
2019-02-11T00:39:20.365Z,4.80
2019-02-11T00:42:09.368Z,4.70
2019-02-11T00:44:58.335Z,4.80
2019-02-11T00:47:46.968Z,4.70
2019-02-11T00:50:36.087Z,4.70
2019-02-11T00:53:25.368Z,4.70
2019-02-11T00:56:14.842Z,4.70
2019-02-11T00:59:04.060Z,4.70
2019-02-11T01:01:53.839Z,4.70
2019-02-11T01:04:43.122Z,4.70
2019-02-11T01:07:32.060Z,4.70
2019-02-11T01:10:21.176Z,4.70
2019-02-11T01:13:10.042Z,4.80
2019-02-11T01:15:59.382Z,4.80
2019-02-11T01:18:48.808Z,4.80
2019-02-11T01:21:37.631Z,4.80
2019-02-11T01:24:26.881Z,4.80
2019-02-11T01:27:16.399Z,4.80
2019-02-11T01:30:06.401Z,4.80
2019-02-11T01:32:54.946Z,4.80
2019-02-11T01:35:44.930Z,4.80
2019-02-11T01:38:34.960Z,4.80
2019-02-11T01:41:24.191Z,4.80
2019-02-11T01:44:13.455Z,4.90
2019-02-11T01:46:43.416Z,4.90
2019-02-11T01:49:32.461Z,4.90
2019-02-11T01:52:21.220Z,4.90
2019-02-11T01:55:10.173Z,5.00
2019-02-11T01:57:59.522Z,5.00
2019-02-11T02:00:48.205Z,5.00
2019-02-11T02:03:37.268Z,5.00
2019-02-11T02:06:26.172Z,5.00
2019-02-11T02:09:15.369Z,5.00
2019-02-11T02:12:03.993Z,5.00
2019-02-11T02:14:52.912Z,5.00
2019-02-11T02:17:41.869Z,4.90
2019-02-11T02:20:31.128Z,4.90
2019-02-11T02:23:20.362Z,4.80
2019-02-11T02:25:50.369Z,4.90
2019-02-11T02:28:39.538Z,4.90
2019-02-11T02:31:28.863Z,4.90
2019-02-11T02:34:17.693Z,4.90
2019-02-11T02:37:06.791Z,4.90
2019-02-11T02:39:55.923Z,4.90
2019-02-11T02:42:44.711Z,4.80
2019-02-11T02:45:33.939Z,4.90
2019-02-11T02:48:22.656Z,4.90
2019-02-11T02:51:11.597Z,4.90
2019-02-11T02:54:00.330Z,4.90
2019-02-11T02:56:49.505Z,4.90
2019-02-11T02:59:38.663Z,4.90
2019-02-11T03:02:27.546Z,4.90
2019-02-11T03:05:16.502Z,4.90
2019-02-11T03:08:05.679Z,4.90
2019-02-11T03:10:55.077Z,4.90
2019-02-11T03:13:44.701Z,5.00
2019-02-11T03:16:33.833Z,5.00
2019-02-11T03:19:23.083Z,5.00
2019-02-11T03:22:12.400Z,5.00
2019-02-11T03:25:01.537Z,5.00
2019-02-11T03:27:50.900Z,5.00
2019-02-11T03:30:39.256Z,5.00
2019-02-11T03:33:28.099Z,5.00
2019-02-11T03:36:17.110Z,5.00
2019-02-11T03:38:57.161Z,5.00
2019-02-11T03:41:46.564Z,5.00
2019-02-11T03:44:35.630Z,5.00
2019-02-11T03:47:24.991Z,5.00
2019-02-11T03:50:13.922Z,5.10
2019-02-11T03:53:03.290Z,5.10
2019-02-11T03:55:51.864Z,5.10
2019-02-11T03:58:41.221Z,5.10
2019-02-11T04:01:29.711Z,5.10
2019-02-11T04:04:18.217Z,5.10
2019-02-11T04:07:07.309Z,5.10
2019-02-11T04:09:56.001Z,5.10
2019-02-11T04:12:45.129Z,5.10
2019-02-11T04:15:34.592Z,5.10
2019-02-11T04:18:23.241Z,5.10
2019-02-11T04:21:11.723Z,5.20
2019-02-11T04:24:01.064Z,5.20
2019-02-11T04:26:50.216Z,5.20
2019-02-11T04:29:39.505Z,5.20
2019-02-11T04:32:28.238Z,5.10
2019-02-11T04:34:58.300Z,5.10
2019-02-11T04:37:47.681Z,5.10
2019-02-11T04:40:36.805Z,5.10
2019-02-11T04:43:25.799Z,5.10
2019-02-11T04:46:15.472Z,5.10
2019-02-11T04:49:05.300Z,5.00
2019-02-11T04:51:54.385Z,5.00
2019-02-11T04:54:43.737Z,5.00
2019-02-11T04:57:33.040Z,5.00
2019-02-11T05:00:22.404Z,5.00
2019-02-11T05:03:11.022Z,5.00
2019-02-11T05:05:59.986Z,5.00
2019-02-11T05:08:49.226Z,4.90
2019-02-11T05:11:38.145Z,4.90
2019-02-11T05:14:27.418Z,4.80
2019-02-11T05:17:16.811Z,4.80
2019-02-11T05:20:06.376Z,4.80
2019-02-11T05:22:55.343Z,4.90
2019-02-11T05:25:40.705Z,4.90
2019-02-11T05:28:29.821Z,4.90
2019-02-11T05:31:18.728Z,4.90
2019-02-11T05:34:07.607Z,4.90
2019-02-11T05:36:56.834Z,4.90
2019-02-11T05:39:46.161Z,4.80
2019-02-11T05:42:16.541Z,4.80
2019-02-11T05:44:53.608Z,4.80
2019-02-11T05:47:18.918Z,4.70
2019-02-11T05:49:49.028Z,4.70
2019-02-11T05:52:19.280Z,4.70
2019-02-11T05:54:49.469Z,4.80
2019-02-11T05:57:19.833Z,4.80
2019-02-11T05:59:49.925Z,4.90
2019-02-11T06:02:22.610Z,4.90
2019-02-11T06:04:52.771Z,4.90
2019-02-11T06:07:23.262Z,4.90
2019-02-11T06:09:53.435Z,4.90
2019-02-11T06:12:23.921Z,5.00
2019-02-11T06:15:03.728Z,5.00
2019-02-11T06:17:26.349Z,5.00
2019-02-11T06:19:56.535Z,5.00
2019-02-11T06:22:28.779Z,5.00
2019-02-11T06:25:18.479Z,5.00
2019-02-11T06:27:48.682Z,5.00
2019-02-11T06:30:19.093Z,4.90
2019-02-11T06:32:49.546Z,5.00
2019-02-11T06:35:19.861Z,4.90
2019-02-11T06:37:50.149Z,4.90
2019-02-11T06:40:39.800Z,4.90
2019-02-11T06:43:28.703Z,4.90
2019-02-11T06:46:17.910Z,4.80
2019-02-11T06:49:07.481Z,4.80
2019-02-11T06:51:56.317Z,4.80
2019-02-11T06:54:45.381Z,4.90
2019-02-11T06:57:34.389Z,4.90
2019-02-11T07:00:05.654Z,4.90
2019-02-11T07:02:54.287Z,4.90
2019-02-11T07:05:43.462Z,4.90
2019-02-11T07:08:32.772Z,4.90
2019-02-11T07:11:21.370Z,4.90
2019-02-11T07:14:10.910Z,5.00
2019-02-11T07:16:59.721Z,5.00
2019-02-11T07:19:48.255Z,5.00
2019-02-11T07:22:37.270Z,5.10
2019-02-11T07:25:26.197Z,5.10
2019-02-11T07:28:15.302Z,5.20
2019-02-11T07:31:01.650Z,5.10
2019-02-11T07:33:51.048Z,5.20
2019-02-11T07:36:40.535Z,5.20
2019-02-11T07:39:29.768Z,5.20
2019-02-11T07:42:23.729Z,5.30
2019-02-11T07:45:20.646Z,5.30
2019-02-11T07:48:09.674Z,5.20
2019-02-11T07:50:58.536Z,5.20
2019-02-11T07:53:47.616Z,5.20
2019-02-11T07:56:36.821Z,5.10
2019-02-11T07:59:26.321Z,5.10
2019-02-11T08:02:15.463Z,5.20
2019-02-11T08:05:04.664Z,5.30
2019-02-11T08:07:54.442Z,5.30
2019-02-11T08:10:45.915Z,5.30
2019-02-11T08:13:17.739Z,5.40
2019-02-11T08:16:06.612Z,5.50
2019-02-11T08:18:56.028Z,5.40
2019-02-11T08:21:44.844Z,5.50
2019-02-11T08:24:17.800Z,5.40
2019-02-11T08:26:48.296Z,5.50
2019-02-11T08:29:36.765Z,5.50
2019-02-11T08:32:25.083Z,5.60
2019-02-11T08:35:14.869Z,5.60
2019-02-11T08:38:03.964Z,5.70
2019-02-11T08:40:53.124Z,5.70
2019-02-11T08:43:42.053Z,5.70
2019-02-11T08:46:30.939Z,5.60
2019-02-11T08:49:20.233Z,5.50
2019-02-11T08:52:09.826Z,5.50
2019-02-11T08:54:58.862Z,5.50
2019-02-11T08:57:47.526Z,5.40
2019-02-11T09:00:37.039Z,5.50
2019-02-11T09:03:26.361Z,5.60
2019-02-11T09:06:15.821Z,5.80
2019-02-11T09:08:49.183Z,5.80
2019-02-11T09:11:38.747Z,5.80
2019-02-11T09:14:28.053Z,5.80
2019-02-11T09:17:16.887Z,5.80
2019-02-11T09:20:07.320Z,5.80
2019-02-11T09:22:56.393Z,5.70
2019-02-11T09:25:45.792Z,5.70
2019-02-11T09:28:34.755Z,5.70
2019-02-11T09:31:23.333Z,5.70
2019-02-11T09:34:12.808Z,5.70
2019-02-11T09:37:01.962Z,5.80
2019-02-11T09:39:51.906Z,5.90
2019-02-11T09:42:40.931Z,6.10
2019-02-11T09:45:29.820Z,6.10
2019-02-11T09:48:18.462Z,6.20
2019-02-11T09:50:53.257Z,6.40
2019-02-11T09:53:42.306Z,6.40
2019-02-11T09:56:31.688Z,6.60
2019-02-11T09:59:20.428Z,6.60
2019-02-11T10:02:09.271Z,6.60
2019-02-11T10:04:58.493Z,6.60
2019-02-11T10:07:47.581Z,6.70
2019-02-11T10:10:36.584Z,6.70
2019-02-11T10:13:25.577Z,6.70
2019-02-11T10:16:14.749Z,6.90
2019-02-11T10:19:03.796Z,7.00
2019-02-11T10:21:52.159Z,7.20
2019-02-11T10:24:41.129Z,7.20
2019-02-11T10:27:30.639Z,7.30
2019-02-11T10:30:19.155Z,7.40
2019-02-11T10:32:56.297Z,7.40
2019-02-11T10:35:45.061Z,7.30
2019-02-11T10:38:36.503Z,7.40
2019-02-11T10:41:24.158Z,7.50
2019-02-11T10:44:12.836Z,7.60
2019-02-11T10:47:01.266Z,7.50
2019-02-11T10:49:50.174Z,7.40
2019-02-11T10:52:39.226Z,7.40
2019-02-11T10:55:28.707Z,7.50
2019-02-11T10:58:17.981Z,7.60
2019-02-11T11:01:07.189Z,7.70
2019-02-11T11:03:56.711Z,7.60
2019-02-11T11:06:46.606Z,7.50
2019-02-11T11:09:35.960Z,7.50
2019-02-11T11:12:06.256Z,7.50
2019-02-11T11:14:45.583Z,7.60
2019-02-11T11:17:15.794Z,7.60
2019-02-11T11:19:46.181Z,7.70
2019-02-11T11:22:16.514Z,7.70
2019-02-11T11:24:47.016Z,7.90
2019-02-11T11:27:18.779Z,7.90
2019-02-11T11:29:49.162Z,7.90
2019-02-11T11:32:19.309Z,7.90
2019-02-11T11:34:49.548Z,8.00
2019-02-11T11:37:19.768Z,7.90
2019-02-11T11:39:50.208Z,7.90
2019-02-11T11:42:20.586Z,7.80
2019-02-11T11:45:12.494Z,7.70
2019-02-11T11:48:01.411Z,7.70
2019-02-11T11:50:50.782Z,7.50
2019-02-11T11:53:39.617Z,7.40
2019-02-11T11:56:28.468Z,7.20
2019-02-11T11:58:58.786Z,7.10
2019-02-11T12:01:31.076Z,7.00
2019-02-11T12:04:01.992Z,6.90
2019-02-11T12:06:32.194Z,6.80
2019-02-11T12:09:02.543Z,6.80
2019-02-11T12:11:51.649Z,6.90
2019-02-11T12:14:40.690Z,6.90
2019-02-11T12:17:29.655Z,6.90
2019-02-11T12:20:18.521Z,6.80
2019-02-11T12:22:48.993Z,6.80
2019-02-11T12:25:19.390Z,6.80
2019-02-11T12:27:49.993Z,6.80
2019-02-11T12:30:38.663Z,6.70
2019-02-11T12:33:28.630Z,6.80
2019-02-11T12:36:17.710Z,6.80
2019-02-11T12:39:06.758Z,6.90
2019-02-11T12:41:36.793Z,6.90
2019-02-11T12:44:06.871Z,7.00
2019-02-11T12:46:37.267Z,7.00
2019-02-11T12:49:07.659Z,6.90
2019-02-11T12:51:37.756Z,6.70
2019-02-11T12:54:07.887Z,6.80
2019-02-11T12:56:38.100Z,6.70
2019-02-11T12:59:08.433Z,6.70
2019-02-11T13:01:38.869Z,6.80
2019-02-11T13:04:09.123Z,6.90
2019-02-11T13:06:39.566Z,6.90
2019-02-11T13:09:10.083Z,7.00
2019-02-11T13:11:40.533Z,7.10
2019-02-11T13:14:10.874Z,7.30
2019-02-11T13:16:41.232Z,7.40
2019-02-11T13:19:11.471Z,7.40
2019-02-11T13:21:41.987Z,7.50
2019-02-11T13:24:12.133Z,7.50
2019-02-11T13:26:42.366Z,7.50
2019-02-11T13:29:12.606Z,7.50
2019-02-11T13:31:42.773Z,7.30
2019-02-11T13:34:12.829Z,7.20
2019-02-11T13:36:43.003Z,7.20
2019-02-11T13:39:13.256Z,7.10
2019-02-11T13:41:43.550Z,7.00
2019-02-11T13:44:13.956Z,6.80
2019-02-11T13:46:44.437Z,6.80
2019-02-11T13:49:15.389Z,6.80
2019-02-11T13:51:45.792Z,6.70
2019-02-11T13:54:15.998Z,6.70
2019-02-11T13:56:46.458Z,6.60
2019-02-11T13:59:16.609Z,6.60
2019-02-11T14:01:47.257Z,6.60
2019-02-11T14:04:17.571Z,6.60
2019-02-11T14:06:47.965Z,6.50
2019-02-11T14:09:18.611Z,6.50
2019-02-11T14:11:49.466Z,6.50
2019-02-11T14:14:28.227Z,6.50
2019-02-11T14:17:00.319Z,6.40
2019-02-11T14:19:30.741Z,6.40
2019-02-11T14:22:01.503Z,6.40
2019-02-11T14:24:32.235Z,6.40
2019-02-11T14:27:21.805Z,6.30
2019-02-11T14:30:12.170Z,6.20
2019-02-11T14:33:01.460Z,6.20
2019-02-11T14:35:50.540Z,6.10
2019-02-11T14:38:40.248Z,6.10
2019-02-11T14:41:29.835Z,6.10
2019-02-11T14:44:19.003Z,6.00
2019-02-11T14:47:07.840Z,6.00
2019-02-11T14:49:38.464Z,6.00
2019-02-11T14:52:27.588Z,6.00
2019-02-11T14:55:16.927Z,6.00
2019-02-11T14:57:47.228Z,6.10
2019-02-11T15:00:19.556Z,6.10
2019-02-11T15:02:50.158Z,6.20
2019-02-11T15:05:20.564Z,6.20
2019-02-11T15:07:51.358Z,6.30
2019-02-11T15:10:22.097Z,6.40
2019-02-11T15:12:52.947Z,6.40
2019-02-11T15:15:25.019Z,6.40
2019-02-11T15:17:57.898Z,6.50
2019-02-11T15:20:28.157Z,6.50
2019-02-11T15:22:58.813Z,6.50
2019-02-11T15:25:48.106Z,6.60
2019-02-11T15:28:19.110Z,6.60
2019-02-11T15:30:49.818Z,6.70
2019-02-11T15:33:20.338Z,6.70
2019-02-11T15:35:51.245Z,6.70
2019-02-11T15:38:21.763Z,6.70
2019-02-11T15:40:52.019Z,6.80
2019-02-11T15:43:22.673Z,6.80
2019-02-11T15:45:53.045Z,6.70
2019-02-11T15:48:23.300Z,6.60
2019-02-11T15:50:53.455Z,6.60
2019-02-11T15:53:23.625Z,6.50
2019-02-11T15:55:53.898Z,6.50
2019-02-11T15:58:24.087Z,6.50
2019-02-11T16:00:54.474Z,6.50
2019-02-11T16:03:24.974Z,6.50
2019-02-11T16:05:55.278Z,6.40
2019-02-11T16:08:25.548Z,6.40
2019-02-11T16:11:01.466Z,6.40
2019-02-11T16:13:28.273Z,6.40
2019-02-11T16:16:17.365Z,6.40
2019-02-11T16:18:51.856Z,6.40
2019-02-11T16:21:19.544Z,6.40
2019-02-11T16:23:49.812Z,6.40
2019-02-11T16:26:20.104Z,6.30
2019-02-11T16:28:50.466Z,6.30
2019-02-11T16:31:20.747Z,6.20
2019-02-11T16:33:51.268Z,6.20
2019-02-11T16:36:21.839Z,6.10
2019-02-11T16:38:52.042Z,6.00
2019-02-11T16:41:22.255Z,6.00
2019-02-11T16:43:52.637Z,6.00
2019-02-11T16:46:22.979Z,5.90
2019-02-11T16:49:00.288Z,5.90
2019-02-11T16:51:25.796Z,5.80
2019-02-11T16:53:55.830Z,5.80
2019-02-11T16:56:47.330Z,5.80
2019-02-11T16:59:17.674Z,5.80
2019-02-11T17:01:48.631Z,5.80
2019-02-11T17:04:18.903Z,5.80
2019-02-11T17:06:49.433Z,5.80
2019-02-11T17:09:19.510Z,5.70
2019-02-11T17:11:49.854Z,5.70
2019-02-11T17:14:20.259Z,5.70
2019-02-11T17:16:50.528Z,5.70
2019-02-11T17:19:20.873Z,5.70
2019-02-11T17:21:51.302Z,5.70
2019-02-11T17:24:21.606Z,5.70
2019-02-11T17:26:51.893Z,5.70
2019-02-11T17:29:22.181Z,5.70
2019-02-11T17:31:52.997Z,5.70
2019-02-11T17:34:23.576Z,5.70
2019-02-11T17:36:54.027Z,5.80
2019-02-11T17:39:24.433Z,5.80
2019-02-11T17:41:54.525Z,5.90
2019-02-11T17:44:25.072Z,5.90
2019-02-11T17:46:55.310Z,5.80
2019-02-11T17:49:25.840Z,5.80
2019-02-11T17:52:11.612Z,5.70
2019-02-11T17:54:41.995Z,5.70
2019-02-11T17:57:12.281Z,5.70
2019-02-11T17:59:42.385Z,5.60
2019-02-11T18:02:14.770Z,5.60
2019-02-11T18:04:45.397Z,5.60
2019-02-11T18:07:15.817Z,5.60
2019-02-11T18:09:46.475Z,5.50
2019-02-11T18:12:16.789Z,5.50
2019-02-11T18:14:47.707Z,5.50
2019-02-11T18:17:17.868Z,5.50
2019-02-11T18:19:48.413Z,5.50
2019-02-11T18:22:18.849Z,5.50
2019-02-11T18:24:49.267Z,5.50
2019-02-11T18:27:19.302Z,5.50
2019-02-11T18:29:49.841Z,5.40
2019-02-11T18:32:20.244Z,5.40
2019-02-11T18:34:50.649Z,5.40
2019-02-11T18:37:21.143Z,5.40
2019-02-11T18:39:51.566Z,5.40
2019-02-11T18:42:22.131Z,5.30
2019-02-11T18:44:59.180Z,5.30
2019-02-11T18:47:29.770Z,5.30
2019-02-11T18:50:00.315Z,5.30
2019-02-11T18:52:50.243Z,5.30
2019-02-11T18:55:20.742Z,5.30
2019-02-11T18:57:51.810Z,5.30
2019-02-11T19:00:22.503Z,5.30
2019-02-11T19:02:54.077Z,5.30
2019-02-11T19:05:24.937Z,5.30
2019-02-11T19:07:55.176Z,5.30
2019-02-11T19:10:26.504Z,5.30
2019-02-11T19:13:15.920Z,5.30
2019-02-11T19:15:46.397Z,5.30
2019-02-11T19:18:16.580Z,5.20
2019-02-11T19:20:48.188Z,5.20
2019-02-11T19:23:18.739Z,5.20
2019-02-11T19:25:48.882Z,5.20
2019-02-11T19:28:19.271Z,5.20
2019-02-11T19:30:49.785Z,5.10
2019-02-11T19:33:20.231Z,5.20
2019-02-11T19:36:09.623Z,5.20
2019-02-11T19:38:59.411Z,5.10
2019-02-11T19:41:30.164Z,5.10
2019-02-11T19:44:00.559Z,5.10
2019-02-11T19:46:31.013Z,5.10
2019-02-11T19:49:01.737Z,5.10
2019-02-11T19:51:32.391Z,5.10
2019-02-11T19:54:02.796Z,5.00
2019-02-11T19:56:33.338Z,5.00
2019-02-11T19:59:04.971Z,5.00
2019-02-11T20:01:35.593Z,5.00
2019-02-11T20:04:07.618Z,5.00
2019-02-11T20:06:38.656Z,5.00
2019-02-11T20:09:09.358Z,5.00
2019-02-11T20:11:39.813Z,4.90
2019-02-11T20:14:10.360Z,4.90
2019-02-11T20:16:40.798Z,4.90
2019-02-11T20:19:11.308Z,4.90
2019-02-11T20:21:41.695Z,4.90
2019-02-11T20:24:12.197Z,4.90
2019-02-11T20:26:42.464Z,4.90
2019-02-11T20:29:13.283Z,5.00
2019-02-11T20:31:43.359Z,5.00
2019-02-11T20:34:14.643Z,5.00
2019-02-11T20:36:45.118Z,5.00
2019-02-11T20:39:16.101Z,5.00
2019-02-11T20:41:46.409Z,4.90
2019-02-11T20:44:17.119Z,4.90
2019-02-11T20:46:47.421Z,4.90
2019-02-11T20:49:18.146Z,4.90
2019-02-11T20:51:48.451Z,4.90
2019-02-11T20:54:18.455Z,4.80
2019-02-11T20:57:07.699Z,4.80
2019-02-11T20:59:59.074Z,4.80
2019-02-11T21:02:48.247Z,4.80
2019-02-11T21:05:37.614Z,4.80
2019-02-11T21:08:26.851Z,4.70
2019-02-11T21:11:16.227Z,4.70
2019-02-11T21:14:05.889Z,4.70
2019-02-11T21:16:54.922Z,4.70
2019-02-11T21:19:44.055Z,4.70
2019-02-11T21:22:32.890Z,4.70
2019-02-11T21:25:22.069Z,4.60
2019-02-11T21:28:11.468Z,4.60
2019-02-11T21:31:00.328Z,4.60
2019-02-11T21:33:49.111Z,4.50
2019-02-11T21:36:38.072Z,4.60
2019-02-11T21:39:08.982Z,4.60
2019-02-11T21:41:39.091Z,4.60
2019-02-11T21:44:09.390Z,4.60
2019-02-11T21:46:59.177Z,4.60
2019-02-11T21:49:49.374Z,4.60
2019-02-11T21:52:38.349Z,4.70
2019-02-11T21:55:27.593Z,4.70
2019-02-11T21:58:16.344Z,4.80
2019-02-11T22:01:04.880Z,4.80
2019-02-11T22:03:54.591Z,4.90
2019-02-11T22:06:43.431Z,5.00
2019-02-11T22:09:32.234Z,4.90
2019-02-11T22:12:21.161Z,4.90
2019-02-11T22:15:11.239Z,4.90
2019-02-11T22:18:00.755Z,4.90
2019-02-11T22:20:50.635Z,4.90
2019-02-11T22:23:39.928Z,4.90
2019-02-11T22:26:29.825Z,4.90
2019-02-11T22:29:19.269Z,4.90
2019-02-11T22:32:08.315Z,4.90
2019-02-11T22:34:58.156Z,4.90
2019-02-11T22:37:48.366Z,4.90
2019-02-11T22:40:38.176Z,4.90
2019-02-11T22:43:27.943Z,4.90
2019-02-11T22:46:17.164Z,4.90
2019-02-11T22:49:01.504Z,4.90
2019-02-11T22:51:50.701Z,4.90
2019-02-11T22:54:40.037Z,4.80
2019-02-11T22:57:28.907Z,4.90
2019-02-11T23:00:30.875Z,4.90
2019-02-11T23:03:19.897Z,4.80
2019-02-11T23:06:08.977Z,4.80
2019-02-11T23:08:58.496Z,4.80
2019-02-11T23:11:47.610Z,4.70
2019-02-11T23:14:37.340Z,4.80
2019-02-11T23:17:26.776Z,4.70
2019-02-11T23:20:15.866Z,4.70
2019-02-11T23:23:05.160Z,4.70
2019-02-11T23:25:54.616Z,4.80
2019-02-11T23:28:39.376Z,4.70
2019-02-11T23:31:57.263Z,4.80
2019-02-11T23:34:46.692Z,4.80
2019-02-11T23:37:36.012Z,4.80
2019-02-11T23:40:25.336Z,4.70
2019-02-11T23:43:14.913Z,4.70
2019-02-11T23:46:04.025Z,4.70
2019-02-11T23:48:52.852Z,4.60
2019-02-11T23:51:41.854Z,4.60
2019-02-11T23:54:30.531Z,4.50
2019-02-11T23:57:20.300Z,4.50
